Time;durP1;ratioP1;P1;durP2;ratioP2;P2;SDS_P1;SDS_P2;PMS_P1;PMS_P2;Temp;Humidity;BMP_temperature;BMP_pressure;BME280_temperature;BME280_humidity;BME280_pressure;Samples;Min_cycle;Max_cycle;Signal;HPM_P1;HPM_P2
2022/12/06 00:01:30;;;;;;;10.32;6.82;;;;;;;11.86;79.30;100444.72;5006811;28;20050;-93
2022/12/06 00:04:05;;;;;;;10.95;7.03;;;;;;;11.75;79.48;100428.47;5002766;28;20487;-84
2022/12/06 00:06:37;;;;;;;10.77;7.13;;;;;;;11.86;79.26;100444.72;5002846;28;20054;-93
2022/12/06 00:09:06;;;;;;;9.87;6.57;;;;;;;11.87;79.22;100442.91;4984610;28;20477;-93
2022/12/06 00:11:36;;;;;;;11.43;7.05;;;;;;;11.61;79.37;100402.63;5440662;23;20102;-84
2022/12/06 00:14:07;;;;;;;11.65;6.57;;;;;;;11.72;79.55;100417.97;5693178;23;20041;-85
2022/12/06 00:16:43;;;;;;;10.50;7.10;;;;;;;11.85;79.28;100434.13;5740822;23;20093;31
2022/12/06 00:19:14;;;;;;;10.98;6.57;;;;;;;11.61;79.43;100410.63;4963437;23;20070;-93
2022/12/06 00:21:42;;;;;;;10.57;6.78;;;;;;;11.84;79.30;100443.97;4953211;29;20107;-95
2022/12/06 00:24:13;;;;;;;10.60;6.32;;;;;;;11.79;79.25;100437.19;4951600;29;20044;-93
2022/12/06 00:26:44;;;;;;;11.05;7.00;;;;;;;11.78;79.34;100422.97;4946257;29;20071;-92
2022/12/06 00:29:16;;;;;;;11.80;7.03;;;;;;;11.61;79.17;100399.94;4947703;29;20418;-92
2022/12/06 00:31:45;;;;;;;10.73;6.45;;;;;;;11.61;79.26;100399.09;5189529;23;20048;-91
2022/12/06 00:34:13;;;;;;;10.60;6.75;;;;;;;11.60;79.20;100394.72;5182774;23;20039;-86
2022/12/06 00:36:43;;;;;;;9.27;6.07;;;;;;;11.72;79.27;100407.28;5022179;28;20038;-94
2022/12/06 00:39:13;;;;;;;9.10;6.38;;;;;;;11.66;79.31;100391.63;5062457;23;20086;-91
2022/12/06 00:41:41;;;;;;;12.13;6.60;;;;;;;11.66;79.31;100388.97;5036098;28;20046;-91
2022/12/06 00:44:10;;;;;;;10.45;6.75;;;;;;;11.67;79.43;100382.66;5024361;28;20133;-90
2022/12/06 00:46:40;;;;;;;11.50;6.82;;;;;;;11.79;79.08;100386.41;5019285;28;20500;-92
2022/12/06 00:49:09;;;;;;;12.07;6.45;;;;;;;11.67;79.24;100361.28;5004478;28;20481;-93
2022/12/06 00:51:38;;;;;;;10.60;6.97;;;;;;;11.61;79.14;100359.88;5021641;28;20476;-90
2022/12/06 00:54:08;;;;;;;11.05;6.55;;;;;;;11.59;79.01;100353.78;5018796;28;20101;-88
2022/12/06 00:56:36;;;;;;;9.02;6.07;;;;;;;11.76;79.10;100388.28;4999854;28;20078;-90
2022/12/06 00:59:05;;;;;;;10.20;6.45;;;;;;;11.67;78.90;100377.31;4999966;28;20129;-91
2022/12/06 01:01:34;;;;;;;10.73;6.43;;;;;;;11.79;79.28;100392.59;5023617;28;20096;-92
2022/12/06 01:04:06;;;;;;;9.65;5.90;;;;;;;11.64;79.19;100372.19;5019712;28;20119;-89
2022/12/06 01:06:36;;;;;;;8.85;5.57;;;;;;;11.71;79.03;100370.84;5017391;28;20061;-90
2022/12/06 01:09:06;;;;;;;9.48;5.75;;;;;;;11.65;79.00;100357.84;5017627;28;20417;-90
2022/12/06 01:11:34;;;;;;;9.65;6.10;;;;;;;11.57;79.07;100328.09;5017215;28;20054;-90
2022/12/06 01:14:03;;;;;;;9.23;6.15;;;;;;;11.58;78.92;100330.69;5016714;28;20046;-91
2022/12/06 01:16:32;;;;;;;9.27;5.95;;;;;;;11.66;79.02;100344.41;5016922;28;20504;-92
2022/12/06 01:19:02;;;;;;;8.35;5.53;;;;;;;11.75;79.04;100364.34;5017433;28;20075;-92
2022/12/06 01:21:31;;;;;;;10.45;5.53;;;;;;;11.56;79.14;100326.38;5016440;28;20137;-90
2022/12/06 01:24:00;;;;;;;9.10;5.65;;;;;;;11.55;79.13;100317.50;5020881;28;20046;-90
2022/12/06 01:26:30;;;;;;;8.98;5.80;;;;;;;11.58;79.05;100332.47;4998909;28;20104;-90
2022/12/06 01:28:59;;;;;;;9.88;5.72;;;;;;;11.58;79.06;100329.81;5016938;28;20065;-90
2022/12/06 01:31:28;;;;;;;9.30;5.60;;;;;;;11.73;78.76;100350.22;5016404;28;20042;-89
2022/12/06 01:34:04;;;;;;;8.93;5.55;;;;;;;11.72;79.03;100340.50;5017005;28;20042;-90
2022/12/06 01:36:34;;;;;;;10.35;5.50;;;;;;;11.71;78.97;100328.09;5016345;28;20494;-91
2022/12/06 01:39:05;;;;;;;8.60;5.53;;;;;;;11.73;79.14;100327.03;5016450;28;20078;-88
2022/12/06 01:41:34;;;;;;;8.90;5.57;;;;;;;11.57;78.76;100282.69;5016418;28;20404;-90
2022/12/06 01:44:03;;;;;;;8.68;5.53;;;;;;;11.72;78.92;100305.75;5016309;28;20053;-89
2022/12/06 01:46:34;;;;;;;8.48;5.53;;;;;;;11.62;78.66;100286.78;5002105;28;20054;-90
2022/12/06 01:49:11;;;;;;;8.23;5.28;;;;;;;11.72;78.97;100290.56;5016728;28;20404;-89
2022/12/06 01:51:45;;;;;;;8.60;5.45;;;;;;;11.53;78.86;100257.13;5020565;28;20105;-89
2022/12/06 01:54:14;;;;;;;;;;;;;;;11.70;78.93;100280.94;5020215;28;20064;-89
2022/12/06 01:56:42;;;;;;;8.40;4.97;;;;;;;11.70;78.84;100276.47;5019994;28;20023;-88
2022/12/06 01:59:12;;;;;;;9.32;5.53;;;;;;;11.53;78.91;100249.13;5019405;28;20072;-88
2022/12/06 02:01:41;;;;;;;9.50;5.47;;;;;;;11.50;79.17;100254.66;5021043;28;20140;-87
2022/12/06 02:04:09;;;;;;;7.78;4.95;;;;;;;11.67;78.99;100291.81;5017218;28;20041;-91
2022/12/06 02:06:40;;;;;;;7.93;5.13;;;;;;;11.63;78.87;100287.63;5015993;28;20108;-89
2022/12/06 02:09:11;;;;;;;7.57;4.97;;;;;;;11.62;78.81;100276.09;5016844;28;20046;-91
2022/12/06 02:11:40;;;;;;;8.70;5.07;;;;;;;11.51;79.07;100277.75;5011620;28;20048;-90
2022/12/06 02:14:13;;;;;;;8.68;4.80;;;;;;;11.67;79.00;100339.91;5016098;28;20042;-88
2022/12/06 02:16:56;;;;;;;9.52;4.93;;;;;;;11.47;79.15;100323.31;4998231;28;20149;-90
2022/12/06 02:19:52;;;;;;;9.82;5.05;;;;;;;11.54;78.74;100334.50;5015868;28;20049;-92
2022/12/06 02:22:30;;;;;;;8.15;4.82;;;;;;;11.50;78.87;100318.78;5003121;28;20046;-90
2022/12/06 02:25:11;;;;;;;8.00;4.82;;;;;;;11.61;78.86;100326.97;5015758;28;20093;-89
2022/12/06 02:27:57;;;;;;;7.50;4.65;;;;;;;11.45;79.03;100308.34;5016040;28;20060;-89
2022/12/06 02:30:43;;;;;;;8.15;4.65;;;;;;;11.63;78.95;100351.75;5016286;28;20046;-91
2022/12/06 02:33:19;;;;;;;7.95;4.57;;;;;;;11.62;79.09;100348.22;5015602;28;20053;-91
2022/12/06 02:35:53;;;;;;;8.35;4.57;;;;;;;11.61;78.96;100338.50;5020549;28;20048;-90
2022/12/06 02:38:28;;;;;;;7.82;4.85;;;;;;;11.62;78.77;100347.38;5015308;28;20049;-92
2022/12/06 02:40:59;;;;;;;7.57;4.80;;;;;;;11.63;78.87;100343.75;5002409;28;20058;-91
2022/12/06 02:43:34;;;;;;;7.70;4.72;;;;;;;11.64;78.57;100340.97;5022848;28;20088;-90
2022/12/06 02:46:05;;;;;;;8.20;4.82;;;;;;;11.62;78.80;100358.91;5002291;28;20060;-92
2022/12/06 02:48:34;;;;;;;7.38;4.32;;;;;;;11.64;78.69;100358.81;5019254;28;20053;-91
2022/12/06 02:51:10;;;;;;;8.07;5.03;;;;;;;11.68;78.32;100368.38;5022447;28;20056;-91
2022/12/06 02:53:42;;;;;;;6.30;3.83;;;;;;;11.67;78.24;100361.28;5002651;28;20054;-92
2022/12/06 02:56:11;;;;;;;8.20;4.90;;;;;;;11.67;78.45;100355.94;5018333;28;20042;-93
2022/12/06 02:58:39;;;;;;;7.85;4.40;;;;;;;11.64;78.38;100337.44;5020492;28;20053;-92
2022/12/06 03:01:13;;;;;;;7.78;4.68;;;;;;;11.65;78.37;100352.50;5015730;28;20050;-91
2022/12/06 03:04:05;;;;;;;7.97;5.05;;;;;;;11.64;78.43;100340.13;5015979;28;20056;-92
2022/12/06 03:06:56;;;;;;;6.55;4.28;;;;;;;11.62;78.42;100318.00;5016077;28;20045;-92
2022/12/06 03:09:43;;;;;;;7.03;4.40;;;;;;;11.62;78.64;100309.97;5015991;28;20100;-91
2022/12/06 03:12:18;;;;;;;8.65;4.55;;;;;;;11.57;78.29;100301.38;5016424;28;20072;-91
2022/12/06 03:14:51;;;;;;;7.60;4.20;;;;;;;11.60;78.52;100287.84;5017074;28;20052;-93
2022/12/06 03:17:27;;;;;;;7.50;4.38;;;;;;;11.60;78.46;100295.84;5016813;28;20535;-93
2022/12/06 03:19:59;;;;;;;8.73;4.35;;;;;;;11.58;78.34;100303.97;4999150;28;20046;-93
2022/12/06 03:22:32;;;;;;;7.18;4.40;;;;;;;11.58;78.50;100295.97;5017511;28;20125;-93
2022/12/06 03:25:09;;;;;;;7.45;4.25;;;;;;;11.57;78.62;100282.69;5024835;28;20153;-92
2022/12/06 03:27:40;;;;;;;7.63;4.05;;;;;;;11.58;78.61;100265.69;5013442;28;20049;-91
2022/12/06 03:30:12;;;;;;;6.97;4.22;;;;;;;11.55;78.41;100261.41;5003121;28;20046;-89
2022/12/06 03:32:45;;;;;;;7.13;4.10;;;;;;;11.52;78.51;100239.38;5024596;28;20049;-90
2022/12/06 03:35:20;;;;;;;8.65;4.55;;;;;;;11.53;78.63;100236.59;5026124;28;20042;-90
2022/12/06 03:37:55;;;;;;;6.95;4.40;;;;;;;11.54;78.50;100232.13;5007164;28;20558;-91
2022/12/06 03:40:27;;;;;;;7.22;4.18;;;;;;;11.53;78.60;100233.09;5028345;28;20141;-90
2022/12/06 03:42:56;;;;;;;7.32;4.38;;;;;;;11.54;78.55;100248.16;5028564;28;20057;-91
2022/12/06 03:45:30;;;;;;;7.13;4.40;;;;;;;11.52;78.47;100250.94;5030689;28;20113;-90
2022/12/06 03:48:04;;;;;;;7.32;4.30;;;;;;;11.52;78.50;100263.44;5031220;28;20054;-90
2022/12/06 03:50:36;;;;;;;7.22;4.20;;;;;;;11.53;78.41;100244.63;5027569;28;20069;-91
2022/12/06 03:53:05;;;;;;;7.35;4.40;;;;;;;11.49;78.52;100234.25;5010424;28;20027;-91
2022/12/06 03:55:33;;;;;;;7.18;4.35;;;;;;;11.43;78.73;100236.34;5008693;28;20130;-91
2022/12/06 03:58:01;;;;;;;7.28;4.32;;;;;;;11.41;78.88;100235.59;5019938;28;20041;-90
2022/12/06 04:00:29;;;;;;;6.63;3.88;;;;;;;11.44;78.95;100227.38;5029437;28;20053;-91
2022/12/06 04:02:59;;;;;;;7.22;4.50;;;;;;;11.43;78.92;100217.66;5012571;28;20068;-92
2022/12/06 04:05:27;;;;;;;7.05;4.38;;;;;;;11.42;78.96;100215.94;5031182;28;20133;-92
2022/12/06 04:07:55;;;;;;;7.15;4.25;;;;;;;11.43;78.86;100222.13;5010018;28;20045;-90
2022/12/06 04:10:23;;;;;;;7.13;4.07;;;;;;;11.40;78.92;100209.00;4999097;28;20046;-91
2022/12/06 04:13:00;;;;;;;8.05;4.60;;;;;;;11.40;78.90;100222.34;4982303;28;20050;-91
2022/12/06 04:15:30;;;;;;;6.45;4.15;;;;;;;11.41;78.83;100221.38;5002108;28;20416;-91
2022/12/06 04:18:12;;;;;;;6.72;3.92;;;;;;;11.41;78.80;100219.56;5008020;28;20508;-90
2022/12/06 04:23:44;;;;;;;8.70;4.20;;;;;;;11.39;78.87;100233.97;5010897;28;20042;-88
2022/12/06 04:26:14;;;;;;;6.28;3.90;;;;;;;11.40;78.94;100230.34;5012192;28;20074;-89
2022/12/06 04:39:48;;;;;;;6.88;3.88;;;;;;;11.20;78.82;100250.31;4997938;28;20142;-92
2022/12/06 04:45:02;;;;;;;7.53;4.32;;;;;;;11.37;78.75;100283.94;5008072;28;20050;-91
2022/12/06 04:47:30;;;;;;;6.53;3.80;;;;;;;11.31;78.62;100269.19;5000703;28;20656;-91
2022/12/06 04:49:59;;;;;;;7.25;4.20;;;;;;;11.35;78.73;100276.03;5018432;28;20112;-92
2022/12/06 04:52:28;;;;;;;6.78;3.85;;;;;;;11.34;78.66;100268.13;5019957;28;20060;-91
2022/12/06 04:55:02;;;;;;;7.13;4.20;;;;;;;11.35;78.75;100284.03;5023583;28;20076;-92
2022/12/06 04:57:31;;;;;;;5.85;3.83;;;;;;;11.35;78.88;100278.69;5017848;28;20129;-91
2022/12/06 04:59:59;;;;;;;7.30;4.03;;;;;;;11.33;78.73;100271.75;5017045;28;20049;-90
2022/12/06 05:02:28;;;;;;;6.65;4.05;;;;;;;11.35;78.56;100284.03;5017434;28;20480;-91
2022/12/06 05:04:56;;;;;;;5.65;3.70;;;;;;;11.35;78.63;100273.34;5017308;28;20526;-89
2022/12/06 05:07:25;;;;;;;7.50;4.25;;;;;;;11.33;78.61;100277.94;5017378;28;20054;-91
2022/12/06 05:09:53;;;;;;;6.47;4.10;;;;;;;11.34;78.49;100268.13;5019359;28;20046;-91
2022/12/06 05:12:21;;;;;;;7.45;4.20;;;;;;;11.34;78.60;100254.75;5021498;28;20042;-92
2022/12/06 05:14:49;;;;;;;6.20;3.70;;;;;;;11.35;78.58;100253.81;5020884;28;20108;-93
2022/12/06 05:17:17;;;;;;;7.90;4.20;;;;;;;11.34;78.45;100258.28;5019453;28;20076;-92
2022/12/06 05:19:45;;;;;;;7.72;4.50;;;;;;;11.36;78.57;100244.84;5017589;28;20041;-93
2022/12/06 05:22:14;;;;;;;6.45;3.90;;;;;;;11.35;78.33;100238.63;5018443;28;20066;-93
2022/12/06 05:24:43;;;;;;;7.25;4.35;;;;;;;11.36;78.16;100245.69;5019011;28;20056;-92
2022/12/06 05:27:11;;;;;;;6.18;3.85;;;;;;;11.37;78.18;100260.75;5018539;28;20056;-91
2022/12/06 05:29:41;;;;;;;6.65;4.32;;;;;;;11.36;78.30;100267.06;5000906;28;20054;-91
2022/12/06 05:32:09;;;;;;;6.90;3.95;;;;;;;11.37;78.10;100255.41;5000317;28;20550;-92
2022/12/06 05:34:37;;;;;;;7.25;4.07;;;;;;;11.36;78.28;100264.38;5017821;28;20050;-91
2022/12/06 05:37:05;;;;;;;6.75;3.72;;;;;;;11.35;78.44;100257.34;5014865;28;20497;-90
2022/12/06 05:39:33;;;;;;;6.80;4.00;;;;;;;11.35;78.25;100264.50;5021746;28;20058;-91
2022/12/06 05:42:03;;;;;;;7.68;3.88;;;;;;;11.34;78.22;100268.97;5032219;28;20065;-92
2022/12/06 05:44:31;;;;;;;7.05;4.13;;;;;;;11.34;78.38;100268.97;5013956;28;20050;-89
2022/12/06 05:46:59;;;;;;;6.88;4.13;;;;;;;11.27;78.42;100262.28;5021952;28;20123;-91
2022/12/06 05:49:27;;;;;;;6.43;3.97;;;;;;;11.28;78.47;100263.16;5018231;28;20532;-91
2022/12/06 05:51:55;;;;;;;7.45;4.40;;;;;;;11.27;78.60;100258.78;5001180;28;20050;-92
2022/12/06 05:54:30;;;;;;;6.53;4.38;;;;;;;11.27;78.63;100256.09;5020207;28;20057;-92
2022/12/06 05:56:58;;;;;;;6.78;4.22;;;;;;;11.26;78.71;100249.91;5019252;28;20100;-92
2022/12/06 05:59:28;;;;;;;6.25;3.90;;;;;;;11.24;78.58;100245.63;5018534;28;20046;-90
2022/12/06 06:01:56;;;;;;;6.38;4.07;;;;;;;11.13;78.50;100230.28;4999939;28;20046;-92
2022/12/06 06:04:24;;;;;;;8.05;4.43;;;;;;;11.25;78.71;100253.53;5017068;28;20050;-90
2022/12/06 06:06:53;;;;;;;6.70;4.03;;;;;;;11.25;78.72;100247.34;5018770;28;20074;-92
2022/12/06 06:09:21;;;;;;;6.40;4.15;;;;;;;11.26;78.55;100239.22;5018375;28;20084;-90
2022/12/06 06:11:49;;;;;;;6.63;3.78;;;;;;;11.28;78.39;100248.00;5018587;28;20050;-88
2022/12/06 06:14:17;;;;;;;7.13;4.00;;;;;;;11.27;78.38;100240.94;5018574;28;20110;-90
2022/12/06 06:16:46;;;;;;;7.18;3.67;;;;;;;11.25;78.49;100221.50;5019312;28;20439;-91
2022/12/06 06:19:15;;;;;;;6.20;3.85;;;;;;;11.25;78.41;100232.16;5017952;28;20125;-90
2022/12/06 06:21:43;;;;;;;6.43;3.97;;;;;;;11.25;78.50;100229.50;5000308;28;20137;-92
2022/12/06 06:24:11;;;;;;;5.68;3.85;;;;;;;11.25;78.59;100220.63;5017094;28;20488;-87
2022/12/06 06:26:39;;;;;;;7.05;4.35;;;;;;;11.26;78.38;100225.00;5017562;28;20042;-92
2022/12/06 06:29:07;;;;;;;6.60;4.05;;;;;;;11.26;78.54;100230.34;5018116;28;20054;-90
2022/12/06 06:31:36;;;;;;;6.10;3.70;;;;;;;11.26;78.32;100228.53;5024917;28;20042;-89
2022/12/06 06:34:05;;;;;;;7.22;4.22;;;;;;;11.28;78.27;100215.94;5024018;28;20097;-89
2022/12/06 06:36:34;;;;;;;6.22;4.00;;;;;;;11.30;78.18;100214.06;5029521;28;20042;-90
2022/12/06 06:39:02;;;;;;;6.63;3.92;;;;;;;11.29;78.13;100209.69;5027370;28;20137;-90
2022/12/06 06:41:30;;;;;;;9.82;4.35;;;;;;;11.30;78.36;100224.75;5027204;28;20052;-87
2022/12/06 06:43:58;;;;;;;15.27;4.45;;;;;;;11.44;82.87;100216.69;5002227;28;20049;-87
2022/12/06 06:46:26;;;;;;;13.23;4.80;;;;;;;11.43;82.14;100214.97;5004632;28;20385;-85
2022/12/06 06:48:54;;;;;;;8.98;4.90;;;;;;;11.49;81.41;100208.41;5018645;28;20093;-84
2022/12/06 06:51:24;;;;;;;9.57;4.32;;;;;;;11.46;80.56;100206.75;5014490;28;20415;-86
2022/12/06 06:53:53;;;;;;;9.35;4.53;;;;;;;11.46;80.03;100203.22;5014583;28;20057;-85
2022/12/06 06:56:21;;;;;;;7.65;4.30;;;;;;;11.43;79.79;100204.28;5014656;28;20542;-84
2022/12/06 06:58:49;;;;;;;9.75;4.25;;;;;;;11.44;79.55;100210.50;5014622;28;20049;-85
2022/12/06 07:01:19;;;;;;;7.68;4.72;;;;;;;11.42;79.36;100213.28;5014721;28;20045;-84
2022/12/06 07:03:48;;;;;;;8.40;4.03;;;;;;;11.39;79.40;100208.13;5014357;28;20129;-86
2022/12/06 07:06:16;;;;;;;8.43;4.68;;;;;;;11.41;79.25;100216.91;4996959;28;20054;-86
2022/12/06 07:08:46;;;;;;;7.55;4.38;;;;;;;11.39;79.22;100208.13;5014406;28;20037;-85
2022/12/06 07:11:15;;;;;;;6.65;4.28;;;;;;;11.38;79.20;100206.38;5014344;28;20049;-84
2022/12/06 07:13:44;;;;;;;7.07;4.15;;;;;;;11.39;79.08;100205.47;5014618;28;20473;-84
2022/12/06 07:16:19;;;;;;;7.93;4.43;;;;;;;11.38;79.28;100210.88;5014368;28;20053;-84
2022/12/06 07:18:48;;;;;;;7.70;4.20;;;;;;;11.38;79.15;100206.38;4996603;28;20060;-83
2022/12/06 07:21:17;;;;;;;10.00;4.47;;;;;;;11.38;79.11;100210.88;5014281;28;20416;-84
2022/12/06 07:23:46;;;;;;;7.15;4.15;;;;;;;11.34;78.94;100204.88;5013989;28;20064;-85
2022/12/06 07:26:16;;;;;;;10.32;4.03;;;;;;;11.34;79.12;100199.53;5014111;28;20080;-84
2022/12/06 07:28:46;;;;;;;8.70;4.60;;;;;;;11.32;79.04;100212.16;5014086;28;20137;-84
2022/12/06 07:31:16;;;;;;;7.30;4.32;;;;;;;11.32;79.15;100228.16;5014316;28;20037;-85
2022/12/06 07:33:45;;;;;;;9.63;4.78;;;;;;;11.33;79.01;100219.19;5012708;28;20050;-86
2022/12/06 07:36:16;;;;;;;8.27;4.40;;;;;;;11.34;78.71;100223.56;5012684;28;20046;-85
2022/12/06 07:38:49;;;;;;;7.25;4.78;;;;;;;11.34;78.80;100230.72;5013600;28;20057;-84
2022/12/06 07:46:51;;;;;;;6.55;3.85;;;;;;;11.34;78.62;100204.03;5011968;28;20444;-86
2022/12/06 07:49:19;;;;;;;7.82;4.45;;;;;;;11.34;78.62;100199.53;5014251;28;20396;-84
2022/12/06 07:51:47;;;;;;;7.30;4.25;;;;;;;11.34;78.60;100183.53;5013959;28;20101;-85
2022/12/06 07:54:17;;;;;;;7.75;4.43;;;;;;;11.32;78.49;100182.78;5013753;28;20108;-87
2022/12/06 07:56:45;;;;;;;6.45;4.32;;;;;;;11.33;78.54;100187.16;5013831;28;20093;-86
2022/12/06 07:59:14;;;;;;;7.07;4.28;;;;;;;11.34;78.59;100209.38;4998772;28;20069;-93
2022/12/06 08:01:43;;;;;;;6.05;4.15;;;;;;;11.33;78.82;100205.84;5002732;28;20046;-89
2022/12/06 08:04:11;;;;;;;8.77;4.40;;;;;;;11.34;78.80;100204.03;5005538;28;20074;-85
2022/12/06 08:06:40;;;;;;;7.75;4.40;;;;;;;11.34;78.62;100209.38;4994172;28;20081;-83
2022/12/06 08:09:09;;;;;;;7.47;4.30;;;;;;;11.31;78.62;100205.09;5013548;28;20120;-83
2022/12/06 08:11:44;;;;;;;8.75;4.55;;;;;;;11.34;78.59;100209.38;5013769;28;20057;-83
2022/12/06 08:14:13;;;;;;;8.05;4.55;;;;;;;11.34;78.76;100215.56;5013906;28;20053;-83
2022/12/06 08:16:41;;;;;;;8.13;4.95;;;;;;;11.35;78.71;100227.97;4995787;28;20116;-85
2022/12/06 08:19:09;;;;;;;5.93;4.03;;;;;;;11.34;78.67;100215.56;5013599;28;20097;-84
2022/12/06 08:21:37;;;;;;;8.40;4.50;;;;;;;11.33;78.86;100213.00;4996359;28;20388;-83
2022/12/06 08:24:06;;;;;;;11.85;4.97;;;;;;;11.33;78.85;100223.69;5013657;28;20118;-84
2022/12/06 08:26:35;;;;;;;7.38;4.65;;;;;;;11.33;78.74;100232.53;5013582;28;20046;-84
2022/12/06 08:29:05;;;;;;;9.75;4.32;;;;;;;11.33;78.99;100232.53;5013472;28;20381;-83
2022/12/06 08:31:33;;;;;;;7.75;4.60;;;;;;;11.33;78.96;100234.38;4996065;28;20045;-84
2022/12/06 08:34:02;;;;;;;9.05;4.82;;;;;;;11.32;78.90;100246.00;5013748;28;20108;-84
2022/12/06 08:36:31;;;;;;;6.97;4.40;;;;;;;11.33;78.75;100240.56;5013783;28;20447;-84
2022/12/06 08:39:00;;;;;;;8.02;4.45;;;;;;;11.28;78.93;100228.44;5014893;28;20050;-84
2022/12/06 08:44:16;;;;;;;7.40;4.22;;;;;;;11.34;78.87;100234.25;5017176;28;20062;-84
2022/12/06 08:46:44;;;;;;;7.13;4.20;;;;;;;11.34;78.71;100234.25;5017362;28;20096;-84
2022/12/06 08:49:14;;;;;;;7.35;4.00;;;;;;;11.35;78.74;100237.78;5017054;28;20486;-84
2022/12/06 08:51:43;;;;;;;6.53;3.53;;;;;;;11.34;78.96;100234.25;5016574;28;20500;-84
2022/12/06 08:54:13;;;;;;;5.28;3.58;;;;;;;11.34;78.95;100233.41;5016666;28;20050;-84
2022/12/06 08:56:42;;;;;;;6.75;3.92;;;;;;;11.33;79.03;100232.53;5016559;28;20081;-84
2022/12/06 08:59:11;;;;;;;7.07;3.90;;;;;;;11.35;78.81;100243.97;5016774;28;20053;-84
2022/12/06 09:01:41;;;;;;;7.88;3.97;;;;;;;11.35;78.84;100243.97;5016515;28;20053;-84
2022/12/06 09:04:10;;;;;;;5.90;3.35;;;;;;;11.37;78.90;100242.06;5016995;28;20054;-85
2022/12/06 09:06:40;;;;;;;5.22;3.47;;;;;;;11.40;78.88;100235.69;5016556;28;20125;-84
2022/12/06 09:09:10;;;;;;;5.75;3.60;;;;;;;11.41;78.85;100234.75;5016732;28;20050;-85
2022/12/06 09:11:39;;;;;;;6.20;3.58;;;;;;;11.41;78.96;100238.25;5017369;28;20054;-84
2022/12/06 09:14:09;;;;;;;5.35;3.30;;;;;;;11.42;79.13;100233.78;5016420;28;20439;-85
2022/12/06 09:16:37;;;;;;;6.15;3.22;;;;;;;11.44;79.07;100229.19;5016288;28;20045;-84
2022/12/06 09:19:07;;;;;;;6.55;3.58;;;;;;;11.45;79.18;100228.22;4998753;28;20050;-84
2022/12/06 09:21:38;;;;;;;5.72;3.22;;;;;;;11.50;79.00;100230.63;5008489;28;20046;-84
2022/12/06 09:24:07;;;;;;;5.78;3.10;;;;;;;11.52;78.98;100224.22;5016388;28;20042;-84
2022/12/06 09:26:35;;;;;;;6.85;3.47;;;;;;;11.57;78.96;100239.94;5007744;28;20510;-85
2022/12/06 09:29:06;;;;;;;4.70;3.22;;;;;;;11.58;79.12;100230.97;5016261;28;20080;-84
2022/12/06 09:31:38;;;;;;;5.30;3.13;;;;;;;11.62;78.97;100229.81;5008250;28;20045;-85
2022/12/06 09:34:09;;;;;;;5.70;3.03;;;;;;;11.65;79.08;100219.78;5016230;28;20042;-85
2022/12/06 09:36:40;;;;;;;6.43;3.10;;;;;;;11.68;78.97;100229.44;5016056;28;20045;-85
2022/12/06 09:39:12;;;;;;;5.50;3.17;;;;;;;11.71;78.92;100229.22;5016049;28;20053;-85
2022/12/06 09:42:07;;;;;;;4.93;2.90;;;;;;;11.74;79.17;100231.69;5015938;28;20042;-85
2022/12/06 09:45:08;;;;;;;5.13;2.83;;;;;;;11.75;79.22;100231.59;4998411;28;20045;-84
2022/12/06 09:47:51;;;;;;;4.40;2.70;;;;;;;11.77;79.14;100234.16;5015668;28;20046;-85
2022/12/06 09:50:25;;;;;;;;;;;;;;;11.78;79.02;100233.22;5016148;28;20050;-84
2022/12/06 09:53:16;;;;;;;4.88;2.90;;;;;;;11.79;79.01;100239.41;5015490;28;19921;-84
2022/12/06 09:55:59;;;;;;;4.20;2.65;;;;;;;11.78;79.08;100235.91;5015502;28;20473;-84
2022/12/06 09:58:43;;;;;;;5.07;2.75;;;;;;;11.78;78.92;100235.03;5015860;28;20050;-85
2022/12/06 10:01:22;;;;;;;5.22;3.00;;;;;;;11.78;79.17;100237.72;5015511;28;20377;-85
2022/12/06 10:04:38;;;;;;;4.93;2.78;;;;;;;11.78;79.02;100229.69;5016429;28;20050;-84
2022/12/06 10:07:14;;;;;;;5.13;2.22;;;;;;;11.78;79.12;100233.22;5015442;28;20042;-84
2022/12/06 10:09:55;;;;;;;3.53;2.20;;;;;;;11.79;78.81;100231.41;5015354;28;20042;-84
2022/12/06 10:12:33;;;;;;;4.57;2.40;;;;;;;11.81;78.88;100221.50;5015306;28;20046;-83
2022/12/06 10:15:19;;;;;;;4.85;2.40;;;;;;;11.84;79.02;100216.78;5015323;28;20092;-84
2022/12/06 10:18:02;;;;;;;3.55;2.10;;;;;;;11.89;78.75;100222.72;5015232;28;20130;-84
2022/12/06 10:20:38;;;;;;;3.85;2.30;;;;;;;11.89;78.93;100214.69;5014657;28;20496;-85
2022/12/06 10:23:23;;;;;;;3.80;2.20;;;;;;;11.88;78.90;100204.09;5015010;28;20121;-85
2022/12/06 10:26:04;;;;;;;4.53;2.30;;;;;;;11.88;78.91;100199.63;5015454;28;20396;-85
2022/12/06 10:28:42;;;;;;;3.72;2.00;;;;;;;11.89;78.92;100190.63;5015771;28;20049;-84
2022/12/06 10:31:21;;;;;;;3.22;1.90;;;;;;;11.90;78.72;100200.38;5015666;28;20045;-84
2022/12/06 10:33:55;;;;;;;3.65;2.13;;;;;;;12.02;78.46;100186.16;4998384;28;20050;-84
2022/12/06 10:36:42;;;;;;;3.35;2.10;;;;;;;12.24;77.83;100184.72;5015878;28;20100;-85
2022/12/06 10:39:21;;;;;;;4.25;2.22;;;;;;;12.34;77.38;100169.75;4994863;28;20066;-84
2022/12/06 10:41:57;;;;;;;4.63;2.20;;;;;;;12.44;77.32;100162.81;5015143;28;20069;-85
2022/12/06 10:44:33;;;;;;;3.70;2.15;;;;;;;12.48;77.16;100150.94;5015309;28;20056;-84
2022/12/06 10:47:05;;;;;;;3.65;1.95;;;;;;;12.56;77.25;100161.97;5015732;28;20045;-84
2022/12/06 10:49:46;;;;;;;3.85;2.30;;;;;;;12.60;76.90;100166.13;5014956;28;20081;-84
2022/12/06 10:52:21;;;;;;;4.18;1.90;;;;;;;12.63;77.12;100161.53;5014904;28;20073;-84
2022/12/06 10:54:58;;;;;;;3.72;2.00;;;;;;;12.65;77.15;100163.16;5014792;28;20424;-84
2022/12/06 10:57:36;;;;;;;3.33;2.17;;;;;;;12.68;77.20;100167.44;4996987;28;20056;-84
2022/12/06 11:00:10;;;;;;;4.30;2.20;;;;;;;12.64;77.35;100166.75;5015270;28;20080;-84
2022/12/06 11:02:48;;;;;;;3.53;1.88;;;;;;;12.63;77.51;100169.56;5014589;28;20038;-84
2022/12/06 11:05:19;;;;;;;3.58;2.00;;;;;;;12.59;77.80;100169.78;5014331;28;20096;-84
2022/12/06 11:07:51;;;;;;;2.80;1.75;;;;;;;12.56;78.09;100158.44;5014152;28;20056;-85
2022/12/06 11:10:25;;;;;;;3.60;1.77;;;;;;;12.54;78.10;100155.00;4996821;28;20448;-84
2022/12/06 11:12:58;;;;;;;3.30;1.90;;;;;;;12.52;78.08;100151.56;4996763;28;20053;-85
2022/12/06 11:15:32;;;;;;;3.83;1.95;;;;;;;12.50;78.03;100159.72;5013859;28;20053;-84
2022/12/06 11:18:05;;;;;;;4.22;1.88;;;;;;;12.47;78.24;100159.94;5014548;28;20057;-85
2022/12/06 11:20:39;;;;;;;3.63;1.80;;;;;;;12.46;78.15;100150.19;5014663;28;20053;-84
2022/12/06 11:23:13;;;;;;;3.88;1.90;;;;;;;12.45;78.15;100142.25;4996592;28;20081;-84
2022/12/06 11:25:53;;;;;;;3.78;1.83;;;;;;;12.44;78.35;100143.22;5014002;28;20412;-85
2022/12/06 11:28:34;;;;;;;3.40;1.90;;;;;;;12.41;78.13;100138.94;4996464;28;20046;-84
2022/12/06 11:31:11;;;;;;;3.10;1.70;;;;;;;12.42;78.31;100150.50;5014405;28;20125;-85
2022/12/06 11:33:39;;;;;;;3.30;1.70;;;;;;;12.41;78.45;100141.63;5014022;28;20056;-85
2022/12/06 11:36:09;;;;;;;2.47;1.55;;;;;;;12.40;78.17;100131.88;5013567;28;20100;-84
2022/12/06 11:38:40;;;;;;;3.03;1.77;;;;;;;12.39;78.19;100140.03;4995957;28;20045;-84
2022/12/06 11:41:12;;;;;;;2.58;1.70;;;;;;;12.38;78.37;100139.16;5013783;28;20046;-84
2022/12/06 11:43:41;;;;;;;2.93;1.70;;;;;;;12.37;78.34;100125.91;5013853;28;20096;-84
2022/12/06 11:46:12;;;;;;;2.67;1.65;;;;;;;12.37;78.35;100126.75;5013837;28;20497;-84
2022/12/06 11:48:41;;;;;;;3.05;1.80;;;;;;;12.37;78.35;100128.59;5013764;28;20049;-84
2022/12/06 11:51:17;;;;;;;3.40;1.85;;;;;;;12.35;78.48;100139.38;5013769;28;20073;-84
2022/12/06 11:53:56;;;;;;;3.85;1.80;;;;;;;12.36;78.41;100129.56;5013796;28;20069;-85
2022/12/06 11:56:28;;;;;;;2.28;1.55;;;;;;;12.33;78.38;100138.63;5013889;28;20049;-85
2022/12/06 11:59:10;;;;;;;2.35;1.60;;;;;;;12.33;78.18;100125.25;4996153;28;20058;-84
2022/12/06 12:01:41;;;;;;;2.72;1.35;;;;;;;12.32;78.14;100134.25;4996172;28;20092;-85
2022/12/06 12:04:24;;;;;;;2.10;1.40;;;;;;;12.34;78.05;100126.97;5013903;28;20046;-84
2022/12/06 12:06:58;;;;;;;2.78;1.60;;;;;;;12.29;77.88;100132.63;5013802;28;20555;-84
2022/12/06 12:09:30;;;;;;;1.98;1.30;;;;;;;12.28;78.06;100127.41;5013458;28;20122;-84
2022/12/06 12:12:04;;;;;;;2.30;1.40;;;;;;;12.26;78.02;100130.19;5014107;28;20050;-85